createdAt,value
2018-07-11T00:01:15.702Z,97983.86
2018-07-11T00:03:48.911Z,97983.66
2018-07-11T00:06:19.463Z,97984.73
2018-07-11T00:08:48.737Z,97977.68
2018-07-11T00:11:17.433Z,97983.88
2018-07-11T00:13:47.117Z,97984.61
2018-07-11T00:16:16.316Z,97987.27
2018-07-11T00:18:45.029Z,97982.89
2018-07-11T00:21:14.066Z,97981.42
2018-07-11T00:23:43.269Z,97980.79
2018-07-11T00:26:12.623Z,97981.31
2018-07-11T00:28:41.257Z,97980.86
2018-07-11T00:31:10.043Z,97981.80
2018-07-11T00:33:38.892Z,97976.92
2018-07-11T00:36:07.620Z,97980.92
2018-07-11T00:38:36.857Z,97982.59
2018-07-11T00:41:06.353Z,97981.37
2018-07-11T00:43:35.451Z,97975.85
2018-07-11T00:46:05.633Z,97976.85
2018-07-11T00:48:35.187Z,97972.42
2018-07-11T00:51:04.721Z,97963.64
2018-07-11T00:53:35.906Z,97964.06
2018-07-11T00:56:04.869Z,97972.09
2018-07-11T00:58:36.344Z,97971.73
2018-07-11T01:01:11.608Z,97968.34
2018-07-11T01:03:49.423Z,97972.99
2018-07-11T01:06:19.584Z,97971.16
2018-07-11T01:08:50.999Z,97971.50
2018-07-11T01:11:20.099Z,97974.70
2018-07-11T01:13:49.471Z,97971.23
2018-07-11T01:16:19.408Z,97973.02
2018-07-11T01:18:51.494Z,97965.69
2018-07-11T01:21:20.924Z,97967.41
2018-07-11T01:23:49.667Z,97970.72
2018-07-11T01:26:18.417Z,97968.80
2018-07-11T01:28:47.588Z,97967.27
2018-07-11T01:31:16.735Z,97970.20
2018-07-11T01:33:46.088Z,97971.63
2018-07-11T01:36:15.188Z,97971.70
2018-07-11T01:38:43.994Z,97966.67
2018-07-11T01:41:13.027Z,97972.27
2018-07-11T01:43:41.999Z,97970.86
2018-07-11T01:46:10.753Z,97965.22
2018-07-11T01:48:39.454Z,97965.16
2018-07-11T01:51:08.692Z,97957.35
2018-07-11T01:53:38.069Z,97958.76
2018-07-11T01:56:06.919Z,97955.00
2018-07-11T01:58:35.717Z,97962.48
2018-07-11T02:01:05.357Z,97952.08
2018-07-11T02:03:34.640Z,97948.44
2018-07-11T02:06:03.909Z,97946.41
2018-07-11T02:08:33.310Z,97938.69
2018-07-11T02:11:02.364Z,97933.11
2018-07-11T02:13:31.772Z,97940.98
2018-07-11T02:16:00.483Z,97942.70
2018-07-11T02:18:30.397Z,97944.56
2018-07-11T02:21:01.398Z,97942.95
2018-07-11T02:23:38.138Z,97950.45
2018-07-11T02:26:06.882Z,97949.38
2018-07-11T02:28:35.568Z,97948.83
2018-07-11T02:31:05.119Z,97951.96
2018-07-11T02:33:33.852Z,97950.60
2018-07-11T02:36:02.538Z,97950.77
2018-07-11T02:38:31.306Z,97954.47
2018-07-11T02:41:00.208Z,97955.66
2018-07-11T02:43:29.118Z,97953.34
2018-07-11T02:45:58.324Z,97953.20
2018-07-11T02:48:27.050Z,97950.43
2018-07-11T02:50:55.884Z,97951.46
2018-07-11T02:53:25.217Z,97953.78
2018-07-11T02:55:54.578Z,97949.09
2018-07-11T02:58:23.399Z,97948.70
2018-07-11T03:00:52.333Z,97953.11
2018-07-11T03:03:21.302Z,97950.22
2018-07-11T03:05:49.889Z,97947.51
2018-07-11T03:08:19.002Z,97952.80
2018-07-11T03:10:48.028Z,97951.77
2018-07-11T03:13:20.662Z,97947.28
2018-07-11T03:15:49.375Z,97948.39
2018-07-11T03:18:18.294Z,97947.22
2018-07-11T03:20:47.539Z,97956.17
2018-07-11T03:23:16.665Z,97956.41
2018-07-11T03:25:45.588Z,97957.37
2018-07-11T03:28:14.268Z,97955.34
2018-07-11T03:30:43.358Z,97957.41
2018-07-11T03:33:12.339Z,97957.91
2018-07-11T03:35:40.994Z,97956.70
2018-07-11T03:38:09.963Z,97958.87
2018-07-11T03:40:39.469Z,97962.88
2018-07-11T03:43:09.205Z,97953.84
2018-07-11T03:45:38.693Z,97958.62
2018-07-11T03:48:08.128Z,97961.26
2018-07-11T03:50:37.169Z,97955.42
2018-07-11T03:53:05.969Z,97956.48
2018-07-11T03:55:35.624Z,97963.75
2018-07-11T03:58:04.673Z,97956.70
2018-07-11T04:00:33.675Z,97959.89
2018-07-11T04:03:02.873Z,97958.79
2018-07-11T04:05:31.687Z,97957.36
2018-07-11T04:08:00.717Z,97959.19
2018-07-11T04:10:29.502Z,97962.05
2018-07-11T04:13:00.998Z,97967.08
2018-07-11T04:15:29.838Z,97965.31
2018-07-11T04:17:58.493Z,97967.07
2018-07-11T04:20:27.629Z,97968.61
2018-07-11T04:22:56.794Z,97968.28
2018-07-11T04:25:25.513Z,97971.39
2018-07-11T04:27:54.464Z,97971.86
2018-07-11T04:30:23.240Z,97980.16
2018-07-11T04:32:51.949Z,97974.90
2018-07-11T04:35:20.782Z,97976.66
2018-07-11T04:37:50.317Z,97978.88
2018-07-11T04:40:19.290Z,97975.83
2018-07-11T04:42:48.873Z,97972.77
2018-07-11T04:45:17.910Z,97973.34
2018-07-11T04:47:47.320Z,97970.76
2018-07-11T04:50:16.459Z,97979.94
2018-07-11T04:52:45.665Z,97977.61
2018-07-11T04:55:14.563Z,97979.30
2018-07-11T04:57:44.154Z,97974.81
2018-07-11T05:00:13.094Z,97981.66
2018-07-11T05:02:42.064Z,97976.86
2018-07-11T05:05:10.820Z,97981.83
2018-07-11T05:07:40.123Z,97980.66
2018-07-11T05:10:09.264Z,97984.66
2018-07-11T05:12:37.948Z,97990.15
2018-07-11T05:15:06.785Z,97987.50
2018-07-11T05:17:36.006Z,97985.77
2018-07-11T05:20:05.164Z,97985.12
2018-07-11T05:22:33.805Z,97983.76
2018-07-11T05:25:02.531Z,97984.88
2018-07-11T05:27:31.789Z,97987.59
2018-07-11T05:30:00.936Z,97990.48
2018-07-11T05:32:30.540Z,97999.42
2018-07-11T05:34:59.399Z,97994.86
2018-07-11T05:37:28.177Z,97993.50
2018-07-11T05:39:57.149Z,97991.67
2018-07-11T05:42:26.510Z,97993.75
2018-07-11T05:44:55.385Z,97989.37
2018-07-11T05:47:24.379Z,97992.52
2018-07-11T05:49:53.184Z,97981.91
2018-07-11T05:52:22.161Z,97984.27
2018-07-11T05:54:51.380Z,97984.30
2018-07-11T05:57:21.491Z,97988.79
2018-07-11T05:59:50.720Z,97995.53
2018-07-11T06:02:19.554Z,97992.89
2018-07-11T06:04:49.244Z,97992.77
2018-07-11T06:07:18.093Z,97998.22
2018-07-11T06:09:46.771Z,98007.02
2018-07-11T06:12:15.985Z,98004.45
2018-07-11T06:14:44.838Z,98004.98
2018-07-11T06:17:13.668Z,98008.05
2018-07-11T06:19:42.680Z,98002.16
2018-07-11T06:22:11.408Z,98002.47
2018-07-11T06:24:40.194Z,98003.71
2018-07-11T06:27:08.880Z,98009.56
2018-07-11T06:29:37.641Z,98011.36
2018-07-11T06:32:06.385Z,98008.35
2018-07-11T06:34:35.173Z,98008.44
2018-07-11T06:37:04.236Z,98017.17
2018-07-11T06:39:33.405Z,98021.04
2018-07-11T06:42:02.641Z,98018.16
2018-07-11T06:44:31.582Z,98025.64
2018-07-11T06:47:04.395Z,98026.63
2018-07-11T06:49:33.222Z,98031.53
2018-07-11T06:52:03.167Z,98037.70
2018-07-11T06:54:32.011Z,98036.84
2018-07-11T06:57:00.801Z,98038.42
2018-07-11T06:59:29.978Z,98048.80
2018-07-11T07:01:59.371Z,98056.83
2018-07-11T07:04:28.669Z,98053.47
2018-07-11T07:06:57.916Z,98055.30
2018-07-11T07:09:26.680Z,98057.37
2018-07-11T07:11:55.540Z,98053.18
2018-07-11T07:14:24.612Z,98050.42
2018-07-11T07:16:53.503Z,98043.88
2018-07-11T07:19:23.017Z,98045.07
2018-07-11T07:21:52.210Z,98039.11
2018-07-11T07:24:21.106Z,98041.90
2018-07-11T07:26:49.885Z,98041.02
2018-07-11T07:29:18.876Z,98040.59
2018-07-11T07:31:48.127Z,98051.16
2018-07-11T07:34:17.486Z,98037.25
2018-07-11T07:36:46.590Z,98039.17
2018-07-11T07:39:16.818Z,98041.93
2018-07-11T07:41:46.712Z,98044.47
2018-07-11T07:44:15.390Z,98035.45
2018-07-11T07:46:49.456Z,98049.81
2018-07-11T07:49:18.587Z,98039.48
2018-07-11T07:51:47.905Z,98039.09
2018-07-11T07:54:16.942Z,98034.17
2018-07-11T07:56:45.921Z,98039.63
2018-07-11T07:59:15.336Z,98041.03
2018-07-11T08:01:44.590Z,98041.63
2018-07-11T08:04:13.726Z,98045.79
2018-07-11T08:06:43.137Z,98041.22
2018-07-11T08:09:11.977Z,98035.78
2018-07-11T08:11:40.634Z,98034.61
2018-07-11T08:14:09.352Z,98032.05
2018-07-11T08:16:39.145Z,98025.97
2018-07-11T08:19:08.077Z,98023.38
2018-07-11T08:21:37.411Z,98021.34
2018-07-11T08:24:17.291Z,98024.73
2018-07-11T08:26:57.676Z,98029.05
2018-07-11T08:29:53.840Z,98032.88
2018-07-11T08:32:41.467Z,98035.11
2018-07-11T08:35:21.680Z,98025.50
2018-07-11T08:40:11.266Z,98025.44
2018-07-11T08:42:51.742Z,98026.33
2018-07-11T08:45:42.775Z,98026.83
2018-07-11T08:48:20.551Z,98027.30
2018-07-11T08:50:59.158Z,98027.02
2018-07-11T08:53:38.977Z,98031.73
2018-07-11T08:56:18.372Z,98024.29
2018-07-11T08:59:17.067Z,98021.04
2018-07-11T09:01:56.215Z,98028.70
2018-07-11T09:04:35.992Z,98028.52
2018-07-11T09:07:48.301Z,98027.78
2018-07-11T09:11:36.876Z,98022.77
2018-07-11T09:16:23.345Z,98035.08
2018-07-11T09:19:38.430Z,98037.57
2018-07-11T09:22:15.484Z,98040.41
2018-07-11T09:24:45.504Z,98046.30
2018-07-11T09:27:14.636Z,98045.78
2018-07-11T09:29:44.385Z,98040.25
2018-07-11T09:32:13.755Z,98041.05
2018-07-11T09:34:43.296Z,98041.98
2018-07-11T09:37:12.852Z,98033.63
2018-07-11T09:39:42.363Z,98036.47
2018-07-11T09:42:11.185Z,98029.23
2018-07-11T09:44:40.180Z,98036.39
2018-07-11T09:47:14.637Z,98036.34
2018-07-11T09:49:43.867Z,98036.20
2018-07-11T09:52:12.766Z,98040.05
2018-07-11T09:54:41.695Z,98045.34
2018-07-11T09:57:11.192Z,98043.06
2018-07-11T09:59:40.566Z,98045.50
2018-07-11T10:02:09.721Z,98048.80
2018-07-11T10:04:38.591Z,98050.52
2018-07-11T10:07:07.443Z,98057.00
2018-07-11T10:09:36.377Z,98051.70
2018-07-11T10:12:05.793Z,98059.72
2018-07-11T10:14:35.226Z,98060.69
2018-07-11T10:17:04.069Z,98053.66
2018-07-11T10:19:32.830Z,98057.36
2018-07-11T10:22:01.552Z,98051.09
2018-07-11T10:24:30.685Z,98053.27
2018-07-11T10:26:59.416Z,98059.84
2018-07-11T10:29:28.591Z,98058.06
2018-07-11T10:31:57.445Z,98053.38
2018-07-11T10:34:26.377Z,98047.72
2018-07-11T10:36:56.211Z,98041.59
2018-07-11T10:39:25.526Z,98050.75
2018-07-11T10:41:54.583Z,98035.86
2018-07-11T10:44:23.395Z,98043.13
2018-07-11T10:46:56.929Z,98047.36
2018-07-11T10:49:25.877Z,98039.14
2018-07-11T10:51:54.781Z,98039.70
2018-07-11T10:54:23.677Z,98040.55
2018-07-11T10:56:52.634Z,98033.22
2018-07-11T10:59:21.713Z,98030.78
2018-07-11T11:01:50.651Z,98028.99
2018-07-11T11:04:23.067Z,98025.99
2018-07-11T11:06:52.171Z,98026.11
2018-07-11T11:09:21.145Z,98026.50
2018-07-11T11:11:50.049Z,98027.00
2018-07-11T11:14:18.772Z,98027.21
2018-07-11T11:16:47.533Z,98033.99
2018-07-11T11:19:16.380Z,98030.78
2018-07-11T11:21:45.436Z,98042.18
2018-07-11T11:24:14.357Z,98048.98
2018-07-11T11:26:43.327Z,98045.60
2018-07-11T11:29:12.192Z,98058.13
2018-07-11T11:31:41.032Z,98062.47
2018-07-11T11:34:09.911Z,98066.80
2018-07-11T11:36:39.176Z,98076.41
2018-07-11T11:39:08.018Z,98073.55
2018-07-11T11:41:37.694Z,98067.98
2018-07-11T11:44:07.387Z,98066.55
2018-07-11T11:46:36.928Z,98064.90
2018-07-11T11:49:07.191Z,98063.22
2018-07-11T11:51:36.418Z,98061.77
2018-07-11T11:54:05.762Z,98064.81
2018-07-11T11:56:34.541Z,98062.95
2018-07-11T11:59:04.311Z,98059.36
2018-07-11T12:01:33.556Z,98057.39
2018-07-11T12:04:02.589Z,98062.83
2018-07-11T12:06:31.861Z,98063.55
2018-07-11T12:09:00.987Z,98067.91
2018-07-11T12:11:29.807Z,98061.70
2018-07-11T12:13:58.622Z,98067.11
2018-07-11T12:16:27.735Z,98071.20
2018-07-11T12:18:56.812Z,98068.27
2018-07-11T12:21:26.073Z,98065.91
2018-07-11T12:23:55.335Z,98071.14
2018-07-11T12:26:24.457Z,98062.80
2018-07-11T12:28:53.482Z,98072.58
2018-07-11T12:31:22.352Z,98069.20
2018-07-11T12:33:51.221Z,98072.17
2018-07-11T12:36:20.402Z,98072.81
2018-07-11T12:38:53.642Z,98078.49
2018-07-11T12:41:22.861Z,98070.03
2018-07-11T12:43:52.267Z,98079.14
2018-07-11T12:46:21.179Z,98076.89
2018-07-11T12:48:55.261Z,98082.06
2018-07-11T12:51:24.382Z,98078.19
2018-07-11T12:53:53.116Z,98076.78
2018-07-11T12:56:22.052Z,98076.78
2018-07-11T12:58:51.213Z,98077.36
2018-07-11T13:01:20.157Z,98085.37
2018-07-11T13:03:48.902Z,98076.20
2018-07-11T13:06:18.207Z,98078.95
2018-07-11T13:08:47.184Z,98088.27
2018-07-11T13:11:16.273Z,98087.74
2018-07-11T13:13:45.333Z,98090.48
2018-07-11T13:16:15.080Z,98081.92
2018-07-11T13:18:44.088Z,98079.52
2018-07-11T13:21:12.954Z,98081.52
2018-07-11T13:23:41.716Z,98086.55
2018-07-11T13:26:10.704Z,98079.00
2018-07-11T13:28:40.137Z,98070.44
2018-07-11T13:31:09.307Z,98070.21
2018-07-11T13:33:38.351Z,98075.77
2018-07-11T13:36:07.659Z,98067.75
2018-07-11T13:38:36.821Z,98072.34
2018-07-11T13:41:06.104Z,98075.55
2018-07-11T13:43:35.358Z,98074.09
2018-07-11T13:46:04.460Z,98069.36
2018-07-11T13:48:33.778Z,98079.77
2018-07-11T13:51:02.917Z,98082.09
2018-07-11T13:53:32.192Z,98084.05
2018-07-11T13:56:01.618Z,98080.29
2018-07-11T13:58:30.822Z,98087.75
2018-07-11T14:00:59.984Z,98086.03
2018-07-11T14:03:28.911Z,98078.23
2018-07-11T14:05:58.278Z,98082.58
2018-07-11T14:08:27.169Z,98075.00
2018-07-11T14:10:56.080Z,98083.06
2018-07-11T14:13:25.127Z,98087.47
2018-07-11T14:15:54.457Z,98078.34
2018-07-11T14:18:23.377Z,98081.20
2018-07-11T14:20:52.597Z,98078.33
2018-07-11T14:23:32.524Z,98077.42
2018-07-11T14:26:01.875Z,98079.00
2018-07-11T14:28:32.039Z,98072.91
2018-07-11T14:31:01.353Z,98066.28
2018-07-11T14:33:32.387Z,98072.44
2018-07-11T14:36:02.237Z,98075.56
2018-07-11T14:38:31.582Z,98072.00
2018-07-11T14:41:02.336Z,98075.58
2018-07-11T14:43:31.532Z,98069.24
2018-07-11T14:46:00.478Z,98070.80
2018-07-11T14:48:30.512Z,98075.23
2018-07-11T14:51:00.932Z,98073.55
2018-07-11T14:53:30.202Z,98066.64
2018-07-11T14:55:59.212Z,98068.52
2018-07-11T14:58:28.151Z,98070.47
2018-07-11T15:00:56.996Z,98058.30
2018-07-11T15:03:26.617Z,98061.94
2018-07-11T15:05:56.219Z,98058.13
2018-07-11T15:08:25.155Z,98060.01
2018-07-11T15:10:53.849Z,98063.17
2018-07-11T15:13:23.853Z,98062.12
2018-07-11T15:15:53.301Z,98060.67
2018-07-11T15:18:22.288Z,98069.31
2018-07-11T15:20:51.214Z,98062.37
2018-07-11T15:23:19.950Z,98066.02
2018-07-11T15:25:48.715Z,98057.44
2018-07-11T15:28:17.842Z,98057.50
2018-07-11T15:30:46.983Z,98057.28
2018-07-11T15:33:16.067Z,98052.16
2018-07-11T15:35:44.888Z,98050.69
2018-07-11T15:38:14.047Z,98048.57
2018-07-11T15:40:43.376Z,98042.11
2018-07-11T15:43:12.461Z,98044.59
2018-07-11T15:45:41.733Z,98040.64
2018-07-11T15:48:11.383Z,98042.33
2018-07-11T15:50:40.895Z,98037.52
2018-07-11T15:53:09.796Z,98040.95
2018-07-11T15:55:38.628Z,98039.30
2018-07-11T15:58:11.859Z,98042.90
2018-07-11T16:00:41.962Z,98043.02
2018-07-11T16:03:12.831Z,98045.55
2018-07-11T16:05:45.489Z,98041.23
2018-07-11T16:08:19.636Z,98044.02
2018-07-11T16:10:55.435Z,98039.64
2018-07-11T16:13:24.929Z,98047.87
2018-07-11T16:15:54.487Z,98041.27
2018-07-11T16:18:23.417Z,98045.19
2018-07-11T16:20:52.324Z,98042.95
2018-07-11T16:23:21.373Z,98042.63
2018-07-11T16:25:51.020Z,98045.27
2018-07-11T16:28:19.986Z,98050.17
2018-07-11T16:30:49.269Z,98051.31
2018-07-11T16:33:18.457Z,98052.38
2018-07-11T16:35:47.122Z,98046.60
2018-07-11T16:38:15.924Z,98047.24
2018-07-11T16:40:44.922Z,98050.13
2018-07-11T16:43:14.752Z,98050.58
2018-07-11T16:45:43.929Z,98054.36
2018-07-11T16:48:12.854Z,98058.23
2018-07-11T16:50:42.033Z,98064.80
2018-07-11T16:53:11.246Z,98057.73
2018-07-11T16:55:40.748Z,98059.04
2018-07-11T16:58:10.983Z,98054.02
2018-07-11T17:00:40.304Z,98057.17
2018-07-11T17:03:11.552Z,98061.55
2018-07-11T17:05:57.803Z,98057.84
2018-07-11T17:08:30.083Z,98062.56
2018-07-11T17:11:30.415Z,98060.08
2018-07-11T17:14:06.549Z,98058.84
2018-07-11T17:16:43.567Z,98056.58
2018-07-11T17:19:16.568Z,98061.45
2018-07-11T17:21:47.200Z,98072.64
2018-07-11T17:24:18.314Z,98068.14
2018-07-11T17:26:48.617Z,98062.83
2018-07-11T17:29:22.939Z,98062.16
2018-07-11T17:31:59.482Z,98063.73
2018-07-11T17:34:28.403Z,98055.16
2018-07-11T17:37:01.193Z,98059.00
2018-07-11T17:39:41.823Z,98060.41
2018-07-11T17:42:12.012Z,98059.56
2018-07-11T17:44:45.057Z,98064.20
2018-07-11T17:47:15.109Z,98062.16
2018-07-11T17:49:49.164Z,98068.89
2018-07-11T17:52:17.886Z,98072.58
2018-07-11T17:54:53.522Z,98073.00
2018-07-11T17:57:36.438Z,98066.78
2018-07-11T18:00:08.416Z,98072.49
2018-07-11T18:02:48.848Z,98076.45
2018-07-11T18:05:26.124Z,98087.94
2018-07-11T18:07:56.641Z,98079.34
2018-07-11T18:10:33.993Z,98083.32
2018-07-11T18:13:15.907Z,98090.89
2018-07-11T18:15:52.848Z,98093.27
2018-07-11T18:18:32.800Z,98096.95
2018-07-11T18:21:13.297Z,98101.50
2018-07-11T18:24:18.864Z,98094.30
2018-07-11T18:27:04.525Z,98092.47
2018-07-11T18:29:45.138Z,98093.31
2018-07-11T18:32:21.487Z,98093.78
2018-07-11T18:35:02.970Z,98102.03
2018-07-11T18:38:24.124Z,98094.52
2018-07-11T18:41:17.093Z,98102.34
2018-07-11T18:43:54.129Z,98103.50
2018-07-11T18:46:36.529Z,98110.08
2018-07-11T18:49:20.506Z,98107.14
2018-07-11T18:51:55.926Z,98106.95
2018-07-11T18:55:09.409Z,98115.31
2018-07-11T18:58:49.978Z,98113.56
2018-07-11T19:01:31.081Z,98110.12
2018-07-11T19:04:09.743Z,98121.98
2018-07-11T19:06:49.409Z,98117.45
2018-07-11T19:09:59.782Z,98123.83
2018-07-11T19:12:34.519Z,98124.72
2018-07-11T19:15:10.866Z,98132.13
2018-07-11T19:17:47.659Z,98130.41
2018-07-11T19:21:31.448Z,98128.23
2018-07-11T19:24:08.058Z,98121.81
2018-07-11T19:26:46.079Z,98117.67
2018-07-11T19:29:53.161Z,98121.16
2018-07-11T19:32:30.992Z,98126.09
2018-07-11T19:36:10.850Z,98131.73
2018-07-11T19:38:46.014Z,98136.05
2018-07-11T19:41:25.950Z,98142.47
2018-07-11T19:48:20.830Z,98144.70
2018-07-11T19:51:12.589Z,98146.63
2018-07-11T19:54:02.900Z,98153.72
2018-07-11T19:56:42.936Z,98152.62
2018-07-11T19:59:12.032Z,98160.19
2018-07-11T20:01:40.974Z,98159.56
2018-07-11T20:04:11.187Z,98157.17
2018-07-11T20:06:40.381Z,98153.73
2018-07-11T20:09:10.400Z,98156.82
2018-07-11T20:11:40.735Z,98160.55
2018-07-11T20:14:09.926Z,98160.97
2018-07-11T20:16:38.934Z,98153.91
2018-07-11T20:19:08.572Z,98158.89
2018-07-11T20:21:37.445Z,98152.50
2018-07-11T20:24:06.198Z,98155.14
2018-07-11T20:26:35.295Z,98161.28
2018-07-11T20:29:04.259Z,98153.69
2018-07-11T20:31:33.123Z,98156.47
2018-07-11T20:34:02.634Z,98152.44
2018-07-11T20:36:32.084Z,98152.35
2018-07-11T20:39:01.168Z,98161.08
2018-07-11T20:41:30.181Z,98159.30
2018-07-11T20:43:59.579Z,98158.41
2018-07-11T20:46:28.970Z,98165.89
2018-07-11T20:48:58.070Z,98159.89
2018-07-11T20:51:30.702Z,98163.20
2018-07-11T20:53:59.596Z,98161.83
2018-07-11T20:56:28.621Z,98160.14
2018-07-11T20:59:08.568Z,98164.95
2018-07-11T21:01:48.254Z,98165.16
2018-07-11T21:07:02.005Z,98164.95
2018-07-11T21:12:42.618Z,98152.89
2018-07-11T21:17:24.193Z,98159.66
2018-07-11T21:19:52.992Z,98158.66
2018-07-11T21:22:21.929Z,98162.83
2018-07-11T21:24:51.183Z,98160.17
2018-07-11T21:27:20.467Z,98163.52
2018-07-11T21:29:49.845Z,98158.48
2018-07-11T21:32:18.799Z,98166.09
2018-07-11T21:34:47.508Z,98160.17
2018-07-11T21:37:16.324Z,98162.52
2018-07-11T21:39:45.840Z,98158.50
2018-07-11T21:42:14.829Z,98159.00
2018-07-11T21:44:43.956Z,98161.30
2018-07-11T21:47:13.829Z,98159.61
2018-07-11T21:49:42.846Z,98157.30
2018-07-11T21:52:11.624Z,98159.79
2018-07-11T21:54:40.463Z,98156.57
2018-07-11T21:57:09.469Z,98156.97
2018-07-11T21:59:38.667Z,98151.60
2018-07-11T22:02:07.948Z,98151.27
2018-07-11T22:04:37.102Z,98155.97
2018-07-11T22:07:06.335Z,98152.20
2018-07-11T22:09:35.244Z,98152.09
2018-07-11T22:12:04.758Z,98156.53
2018-07-11T22:14:33.640Z,98150.04
2018-07-11T22:17:12.236Z,98152.47
2018-07-11T22:19:39.600Z,98153.38
2018-07-11T22:22:07.743Z,98153.89
2018-07-11T22:24:35.118Z,98159.52
2018-07-11T22:27:02.449Z,98152.30
2018-07-11T22:29:30.410Z,98151.56
2018-07-11T22:31:57.779Z,98151.29
2018-07-11T22:34:25.085Z,98146.30
2018-07-11T22:36:53.085Z,98148.05
2018-07-11T22:39:20.589Z,98149.63
2018-07-11T22:41:47.914Z,98151.97
2018-07-11T22:44:15.300Z,98152.67
2018-07-11T22:46:42.604Z,98141.39
2018-07-11T22:49:10.686Z,98147.42
2018-07-11T22:51:38.038Z,98141.39
2018-07-11T22:54:05.365Z,98144.22
2018-07-11T22:56:32.664Z,98141.89
2018-07-11T22:59:00.665Z,98139.86
2018-07-11T23:01:27.943Z,98139.17
2018-07-11T23:03:55.359Z,98144.79
2018-07-11T23:06:22.676Z,98144.67
2018-07-11T23:08:49.971Z,98145.15
2018-07-11T23:11:17.256Z,98138.31
2018-07-11T23:13:45.345Z,98133.50
2018-07-11T23:16:12.624Z,98132.74
2018-07-11T23:18:39.893Z,98133.16
2018-07-11T23:21:07.223Z,98131.37
2018-07-11T23:23:34.480Z,98128.74
2018-07-11T23:26:01.792Z,98128.84
2018-07-11T23:28:29.111Z,98136.42
2018-07-11T23:30:56.436Z,98139.14
2018-07-11T23:33:24.279Z,98140.83
2018-07-11T23:35:51.691Z,98137.91
2018-07-11T23:38:19.785Z,98129.83
2018-07-11T23:40:48.089Z,98129.70
2018-07-11T23:43:15.359Z,98130.09
2018-07-11T23:45:43.606Z,98122.62
2018-07-11T23:48:11.111Z,98124.25
2018-07-11T23:50:38.377Z,98122.70
2018-07-11T23:53:05.655Z,98123.41
2018-07-11T23:55:32.945Z,98124.13
2018-07-11T23:58:00.280Z,98127.22
